sensor_id;sensor_type;location;lat;lon;timestamp;P1;durP1;ratioP1;P2;durP2;ratioP2
38113;SDS011;23926;53.222;6.354;2023-07-08T00:00:19;3.88;;;3.47;;
38113;SDS011;23926;53.222;6.354;2023-07-08T00:02:46;5.50;;;3.70;;
38113;SDS011;23926;53.222;6.354;2023-07-08T00:05:12;10.40;;;4.60;;
38113;SDS011;23926;53.222;6.354;2023-07-08T00:07:39;4.13;;;3.72;;
38113;SDS011;23926;53.222;6.354;2023-07-08T00:10:13;4.40;;;3.40;;
38113;SDS011;23926;53.222;6.354;2023-07-08T00:12:50;5.43;;;2.97;;
38113;SDS011;23926;53.222;6.354;2023-07-08T00:15:17;4.55;;;3.45;;
38113;SDS011;23926;53.222;6.354;2023-07-08T00:17:45;5.03;;;3.20;;
38113;SDS011;23926;53.222;6.354;2023-07-08T00:20:12;4.97;;;2.97;;
38113;SDS011;23926;53.222;6.354;2023-07-08T00:23:07;6.32;;;3.30;;
38113;SDS011;23926;53.222;6.354;2023-07-08T00:25:33;4.68;;;3.85;;
38113;SDS011;23926;53.222;6.354;2023-07-08T00:27:59;4.03;;;3.08;;
38113;SDS011;23926;53.222;6.354;2023-07-08T00:30:29;6.05;;;3.45;;
38113;SDS011;23926;53.222;6.354;2023-07-08T00:32:56;6.18;;;3.65;;
38113;SDS011;23926;53.222;6.354;2023-07-08T00:37:50;5.15;;;3.22;;
38113;SDS011;23926;53.222;6.354;2023-07-08T00:40:18;6.35;;;3.45;;
38113;SDS011;23926;53.222;6.354;2023-07-08T00:42:48;6.35;;;3.75;;
38113;SDS011;23926;53.222;6.354;2023-07-08T00:45:24;4.13;;;3.63;;
38113;SDS011;23926;53.222;6.354;2023-07-08T00:48:18;5.32;;;3.35;;
38113;SDS011;23926;53.222;6.354;2023-07-08T00:50:47;5.85;;;3.72;;
38113;SDS011;23926;53.222;6.354;2023-07-08T00:53:55;5.00;;;3.33;;
38113;SDS011;23926;53.222;6.354;2023-07-08T00:58:47;3.33;;;3.03;;
38113;SDS011;23926;53.222;6.354;2023-07-08T01:01:26;3.10;;;2.80;;
38113;SDS011;23926;53.222;6.354;2023-07-08T01:03:58;7.90;;;4.38;;
38113;SDS011;23926;53.222;6.354;2023-07-08T01:08:56;4.95;;;4.05;;
38113;SDS011;23926;53.222;6.354;2023-07-08T01:11:24;5.80;;;4.10;;
38113;SDS011;23926;53.222;6.354;2023-07-08T01:13:50;5.72;;;3.63;;
38113;SDS011;23926;53.222;6.354;2023-07-08T01:16:16;5.93;;;4.00;;
38113;SDS011;23926;53.222;6.354;2023-07-08T01:18:42;3.50;;;3.10;;
38113;SDS011;23926;53.222;6.354;2023-07-08T01:21:44;5.80;;;3.38;;
38113;SDS011;23926;53.222;6.354;2023-07-08T01:24:11;4.55;;;3.65;;
38113;SDS011;23926;53.222;6.354;2023-07-08T01:26:41;4.03;;;3.42;;
38113;SDS011;23926;53.222;6.354;2023-07-08T01:29:09;4.35;;;3.58;;
38113;SDS011;23926;53.222;6.354;2023-07-08T01:31:36;4.82;;;3.83;;
38113;SDS011;23926;53.222;6.354;2023-07-08T01:34:01;6.15;;;3.47;;
38113;SDS011;23926;53.222;6.354;2023-07-08T01:36:29;3.38;;;3.08;;
38113;SDS011;23926;53.222;6.354;2023-07-08T01:38:59;4.80;;;3.20;;
38113;SDS011;23926;53.222;6.354;2023-07-08T01:41:24;4.30;;;3.78;;
38113;SDS011;23926;53.222;6.354;2023-07-08T01:43:50;4.63;;;3.22;;
38113;SDS011;23926;53.222;6.354;2023-07-08T01:46:24;4.57;;;3.70;;
38113;SDS011;23926;53.222;6.354;2023-07-08T01:48:53;5.57;;;3.60;;
38113;SDS011;23926;53.222;6.354;2023-07-08T01:51:22;3.75;;;3.30;;
38113;SDS011;23926;53.222;6.354;2023-07-08T01:53:49;10.50;;;3.70;;
38113;SDS011;23926;53.222;6.354;2023-07-08T01:56:14;4.95;;;4.40;;
38113;SDS011;23926;53.222;6.354;2023-07-08T01:58:40;5.53;;;4.50;;
38113;SDS011;23926;53.222;6.354;2023-07-08T02:01:06;3.50;;;3.20;;
38113;SDS011;23926;53.222;6.354;2023-07-08T02:03:32;4.53;;;3.08;;
38113;SDS011;23926;53.222;6.354;2023-07-08T02:05:57;6.22;;;4.03;;
38113;SDS011;23926;53.222;6.354;2023-07-08T02:08:23;5.28;;;3.67;;
38113;SDS011;23926;53.222;6.354;2023-07-08T02:10:56;9.77;;;3.63;;
38113;SDS011;23926;53.222;6.354;2023-07-08T02:13:23;4.72;;;3.95;;
38113;SDS011;23926;53.222;6.354;2023-07-08T02:15:49;10.18;;;4.07;;
38113;SDS011;23926;53.222;6.354;2023-07-08T02:18:15;5.50;;;3.85;;
38113;SDS011;23926;53.222;6.354;2023-07-08T02:20:42;3.92;;;3.55;;
38113;SDS011;23926;53.222;6.354;2023-07-08T02:23:08;5.22;;;4.10;;
38113;SDS011;23926;53.222;6.354;2023-07-08T02:25:33;11.68;;;4.93;;
38113;SDS011;23926;53.222;6.354;2023-07-08T02:27:59;5.78;;;3.83;;
38113;SDS011;23926;53.222;6.354;2023-07-08T02:30:24;9.02;;;5.22;;
38113;SDS011;23926;53.222;6.354;2023-07-08T02:32:50;5.93;;;4.05;;
38113;SDS011;23926;53.222;6.354;2023-07-08T02:35:23;4.85;;;3.85;;
38113;SDS011;23926;53.222;6.354;2023-07-08T02:37:50;4.35;;;3.92;;
38113;SDS011;23926;53.222;6.354;2023-07-08T02:40:16;11.30;;;4.80;;
38113;SDS011;23926;53.222;6.354;2023-07-08T02:42:41;4.93;;;3.30;;
38113;SDS011;23926;53.222;6.354;2023-07-08T02:45:07;5.55;;;4.38;;
38113;SDS011;23926;53.222;6.354;2023-07-08T02:47:33;14.07;;;4.43;;
38113;SDS011;23926;53.222;6.354;2023-07-08T02:49:58;4.43;;;3.95;;
38113;SDS011;23926;53.222;6.354;2023-07-08T02:52:24;6.90;;;5.03;;
38113;SDS011;23926;53.222;6.354;2023-07-08T02:54:49;9.65;;;4.43;;
38113;SDS011;23926;53.222;6.354;2023-07-08T02:57:14;4.72;;;4.22;;
38113;SDS011;23926;53.222;6.354;2023-07-08T02:59:40;5.28;;;4.60;;
38113;SDS011;23926;53.222;6.354;2023-07-08T03:02:05;4.78;;;4.18;;
38113;SDS011;23926;53.222;6.354;2023-07-08T03:04:31;5.75;;;4.45;;
38113;SDS011;23926;53.222;6.354;2023-07-08T03:06:56;5.00;;;3.80;;
38113;SDS011;23926;53.222;6.354;2023-07-08T03:09:22;5.10;;;4.57;;
38113;SDS011;23926;53.222;6.354;2023-07-08T03:11:47;6.65;;;4.32;;
38113;SDS011;23926;53.222;6.354;2023-07-08T03:14:12;4.82;;;4.35;;
38113;SDS011;23926;53.222;6.354;2023-07-08T03:16:38;7.35;;;4.70;;
38113;SDS011;23926;53.222;6.354;2023-07-08T03:19:03;6.25;;;4.35;;
38113;SDS011;23926;53.222;6.354;2023-07-08T03:21:30;5.28;;;4.80;;
38113;SDS011;23926;53.222;6.354;2023-07-08T03:23:56;9.10;;;5.32;;
38113;SDS011;23926;53.222;6.354;2023-07-08T03:26:22;5.10;;;4.22;;
38113;SDS011;23926;53.222;6.354;2023-07-08T03:28:49;4.57;;;3.97;;
38113;SDS011;23926;53.222;6.354;2023-07-08T03:31:15;5.53;;;4.25;;
38113;SDS011;23926;53.222;6.354;2023-07-08T03:33:41;5.28;;;4.72;;
38113;SDS011;23926;53.222;6.354;2023-07-08T03:36:11;3.90;;;3.60;;
38113;SDS011;23926;53.222;6.354;2023-07-08T03:38:50;5.83;;;4.87;;
38113;SDS011;23926;53.222;6.354;2023-07-08T03:41:16;8.20;;;4.40;;
38113;SDS011;23926;53.222;6.354;2023-07-08T03:43:42;5.18;;;4.28;;
38113;SDS011;23926;53.222;6.354;2023-07-08T03:46:09;4.82;;;3.80;;
38113;SDS011;23926;53.222;6.354;2023-07-08T03:48:36;6.45;;;5.85;;
38113;SDS011;23926;53.222;6.354;2023-07-08T03:51:02;5.28;;;4.55;;
38113;SDS011;23926;53.222;6.354;2023-07-08T03:53:28;4.13;;;3.72;;
38113;SDS011;23926;53.222;6.354;2023-07-08T03:55:53;5.70;;;4.20;;
38113;SDS011;23926;53.222;6.354;2023-07-08T03:58:18;6.65;;;5.07;;
38113;SDS011;23926;53.222;6.354;2023-07-08T04:00:44;9.55;;;4.65;;
38113;SDS011;23926;53.222;6.354;2023-07-08T04:03:10;4.30;;;3.90;;
38113;SDS011;23926;53.222;6.354;2023-07-08T04:05:36;5.20;;;4.68;;
38113;SDS011;23926;53.222;6.354;2023-07-08T04:08:02;7.30;;;4.18;;
38113;SDS011;23926;53.222;6.354;2023-07-08T04:10:27;5.55;;;4.28;;
38113;SDS011;23926;53.222;6.354;2023-07-08T04:12:53;5.68;;;4.43;;
38113;SDS011;23926;53.222;6.354;2023-07-08T04:15:18;5.38;;;4.88;;
38113;SDS011;23926;53.222;6.354;2023-07-08T04:17:45;4.97;;;4.45;;
38113;SDS011;23926;53.222;6.354;2023-07-08T04:20:14;7.78;;;3.92;;
38113;SDS011;23926;53.222;6.354;2023-07-08T04:22:40;4.28;;;3.88;;
38113;SDS011;23926;53.222;6.354;2023-07-08T04:25:06;3.70;;;3.33;;
38113;SDS011;23926;53.222;6.354;2023-07-08T04:27:32;6.30;;;4.68;;
38113;SDS011;23926;53.222;6.354;2023-07-08T04:29:57;6.60;;;5.00;;
38113;SDS011;23926;53.222;6.354;2023-07-08T04:32:23;4.60;;;4.20;;
38113;SDS011;23926;53.222;6.354;2023-07-08T04:34:50;7.38;;;4.70;;
38113;SDS011;23926;53.222;6.354;2023-07-08T04:37:16;5.57;;;4.10;;
38113;SDS011;23926;53.222;6.354;2023-07-08T04:39:42;8.77;;;3.90;;
38113;SDS011;23926;53.222;6.354;2023-07-08T04:42:07;8.70;;;3.20;;
38113;SDS011;23926;53.222;6.354;2023-07-08T04:44:33;4.13;;;3.55;;
38113;SDS011;23926;53.222;6.354;2023-07-08T04:46:58;5.90;;;4.38;;
38113;SDS011;23926;53.222;6.354;2023-07-08T04:49:25;6.35;;;4.70;;
38113;SDS011;23926;53.222;6.354;2023-07-08T04:51:58;4.93;;;4.43;;
38113;SDS011;23926;53.222;6.354;2023-07-08T04:54:24;6.32;;;4.07;;
38113;SDS011;23926;53.222;6.354;2023-07-08T04:56:50;6.53;;;4.32;;
38113;SDS011;23926;53.222;6.354;2023-07-08T04:59:18;4.60;;;3.20;;
38113;SDS011;23926;53.222;6.354;2023-07-08T05:01:45;10.88;;;4.20;;
38113;SDS011;23926;53.222;6.354;2023-07-08T05:04:12;6.13;;;4.00;;
38113;SDS011;23926;53.222;6.354;2023-07-08T05:06:39;6.47;;;3.80;;
38113;SDS011;23926;53.222;6.354;2023-07-08T05:09:05;5.90;;;4.40;;
38113;SDS011;23926;53.222;6.354;2023-07-08T05:11:30;5.45;;;4.50;;
38113;SDS011;23926;53.222;6.354;2023-07-08T05:13:57;7.88;;;3.78;;
38113;SDS011;23926;53.222;6.354;2023-07-08T05:16:22;5.25;;;3.47;;
38113;SDS011;23926;53.222;6.354;2023-07-08T05:18:48;6.07;;;3.97;;
38113;SDS011;23926;53.222;6.354;2023-07-08T05:21:14;5.40;;;3.70;;
38113;SDS011;23926;53.222;6.354;2023-07-08T05:23:41;13.13;;;5.03;;
38113;SDS011;23926;53.222;6.354;2023-07-08T05:26:06;9.32;;;4.68;;
38113;SDS011;23926;53.222;6.354;2023-07-08T05:28:33;4.53;;;4.07;;
38113;SDS011;23926;53.222;6.354;2023-07-08T05:30:58;6.82;;;4.53;;
38113;SDS011;23926;53.222;6.354;2023-07-08T05:33:24;7.03;;;4.55;;
38113;SDS011;23926;53.222;6.354;2023-07-08T05:35:51;4.90;;;3.83;;
38113;SDS011;23926;53.222;6.354;2023-07-08T05:38:17;4.20;;;3.60;;
38113;SDS011;23926;53.222;6.354;2023-07-08T05:40:43;6.43;;;4.45;;
38113;SDS011;23926;53.222;6.354;2023-07-08T05:43:12;4.22;;;3.50;;
38113;SDS011;23926;53.222;6.354;2023-07-08T05:45:38;6.32;;;3.75;;
38113;SDS011;23926;53.222;6.354;2023-07-08T05:48:03;5.20;;;3.72;;
38113;SDS011;23926;53.222;6.354;2023-07-08T05:50:29;8.52;;;3.58;;
38113;SDS011;23926;53.222;6.354;2023-07-08T05:52:55;4.47;;;4.07;;
38113;SDS011;23926;53.222;6.354;2023-07-08T05:55:20;7.15;;;4.00;;
38113;SDS011;23926;53.222;6.354;2023-07-08T05:57:45;6.15;;;4.25;;
38113;SDS011;23926;53.222;6.354;2023-07-08T06:00:11;8.23;;;4.03;;
38113;SDS011;23926;53.222;6.354;2023-07-08T06:02:37;6.43;;;3.53;;
38113;SDS011;23926;53.222;6.354;2023-07-08T06:05:02;6.45;;;3.55;;
38113;SDS011;23926;53.222;6.354;2023-07-08T06:07:28;7.57;;;3.08;;
38113;SDS011;23926;53.222;6.354;2023-07-08T06:09:54;4.32;;;3.67;;
38113;SDS011;23926;53.222;6.354;2023-07-08T06:12:21;6.40;;;3.60;;
38113;SDS011;23926;53.222;6.354;2023-07-08T06:14:46;4.47;;;3.13;;
38113;SDS011;23926;53.222;6.354;2023-07-08T06:17:12;3.90;;;3.60;;
38113;SDS011;23926;53.222;6.354;2023-07-08T06:19:37;6.00;;;4.28;;
38113;SDS011;23926;53.222;6.354;2023-07-08T06:22:03;5.28;;;3.95;;
38113;SDS011;23926;53.222;6.354;2023-07-08T06:24:28;4.88;;;3.90;;
38113;SDS011;23926;53.222;6.354;2023-07-08T06:26:54;4.22;;;3.72;;
38113;SDS011;23926;53.222;6.354;2023-07-08T06:29:19;3.97;;;3.58;;
38113;SDS011;23926;53.222;6.354;2023-07-08T06:31:45;3.63;;;3.33;;
38113;SDS011;23926;53.222;6.354;2023-07-08T06:34:10;4.88;;;3.95;;
38113;SDS011;23926;53.222;6.354;2023-07-08T06:36:35;4.85;;;3.85;;
38113;SDS011;23926;53.222;6.354;2023-07-08T06:39:01;4.35;;;3.53;;
38113;SDS011;23926;53.222;6.354;2023-07-08T06:41:26;5.13;;;3.70;;
38113;SDS011;23926;53.222;6.354;2023-07-08T06:43:52;5.07;;;3.70;;
38113;SDS011;23926;53.222;6.354;2023-07-08T06:46:18;4.10;;;2.95;;
38113;SDS011;23926;53.222;6.354;2023-07-08T06:48:44;8.65;;;3.75;;
38113;SDS011;23926;53.222;6.354;2023-07-08T06:51:10;9.32;;;3.80;;
38113;SDS011;23926;53.222;6.354;2023-07-08T06:53:35;6.80;;;3.28;;
38113;SDS011;23926;53.222;6.354;2023-07-08T06:56:00;4.50;;;3.38;;
38113;SDS011;23926;53.222;6.354;2023-07-08T06:58:27;2.97;;;2.78;;
38113;SDS011;23926;53.222;6.354;2023-07-08T07:00:53;4.57;;;3.33;;
38113;SDS011;23926;53.222;6.354;2023-07-08T07:03:18;5.07;;;2.90;;
38113;SDS011;23926;53.222;6.354;2023-07-08T07:05:44;4.88;;;3.17;;
38113;SDS011;23926;53.222;6.354;2023-07-08T07:08:09;4.25;;;3.60;;
38113;SDS011;23926;53.222;6.354;2023-07-08T07:10:35;6.28;;;4.15;;
38113;SDS011;23926;53.222;6.354;2023-07-08T07:13:00;4.22;;;2.90;;
38113;SDS011;23926;53.222;6.354;2023-07-08T07:15:26;4.75;;;3.58;;
38113;SDS011;23926;53.222;6.354;2023-07-08T07:17:51;4.22;;;3.28;;
38113;SDS011;23926;53.222;6.354;2023-07-08T07:20:17;5.32;;;3.50;;
38113;SDS011;23926;53.222;6.354;2023-07-08T07:22:43;4.50;;;3.22;;
38113;SDS011;23926;53.222;6.354;2023-07-08T07:25:08;4.10;;;3.47;;
38113;SDS011;23926;53.222;6.354;2023-07-08T07:27:34;4.35;;;3.40;;
38113;SDS011;23926;53.222;6.354;2023-07-08T07:29:59;5.55;;;3.35;;
38113;SDS011;23926;53.222;6.354;2023-07-08T07:32:25;3.28;;;2.83;;
38113;SDS011;23926;53.222;6.354;2023-07-08T07:34:51;7.70;;;2.92;;
38113;SDS011;23926;53.222;6.354;2023-07-08T07:37:19;3.88;;;3.47;;
38113;SDS011;23926;53.222;6.354;2023-07-08T07:39:45;5.82;;;3.45;;
38113;SDS011;23926;53.222;6.354;2023-07-08T07:42:11;4.38;;;3.17;;
38113;SDS011;23926;53.222;6.354;2023-07-08T07:44:38;3.20;;;2.85;;
38113;SDS011;23926;53.222;6.354;2023-07-08T07:47:07;5.07;;;3.70;;
38113;SDS011;23926;53.222;6.354;2023-07-08T07:49:34;7.05;;;3.05;;
38113;SDS011;23926;53.222;6.354;2023-07-08T07:51:59;3.60;;;2.90;;
38113;SDS011;23926;53.222;6.354;2023-07-08T07:54:25;5.65;;;3.30;;
38113;SDS011;23926;53.222;6.354;2023-07-08T07:56:50;3.63;;;2.90;;
38113;SDS011;23926;53.222;6.354;2023-07-08T07:59:16;3.40;;;2.55;;
38113;SDS011;23926;53.222;6.354;2023-07-08T08:01:42;3.38;;;3.05;;
38113;SDS011;23926;53.222;6.354;2023-07-08T08:04:07;3.83;;;2.83;;
38113;SDS011;23926;53.222;6.354;2023-07-08T08:06:34;6.15;;;3.42;;
38113;SDS011;23926;53.222;6.354;2023-07-08T08:08:59;5.03;;;3.42;;
38113;SDS011;23926;53.222;6.354;2023-07-08T08:11:25;4.18;;;3.10;;
38113;SDS011;23926;53.222;6.354;2023-07-08T08:13:51;3.85;;;3.45;;
38113;SDS011;23926;53.222;6.354;2023-07-08T08:16:18;3.50;;;3.20;;
38113;SDS011;23926;53.222;6.354;2023-07-08T08:18:45;4.38;;;3.10;;
38113;SDS011;23926;53.222;6.354;2023-07-08T08:21:10;3.72;;;3.35;;
38113;SDS011;23926;53.222;6.354;2023-07-08T08:23:36;5.78;;;2.85;;
38113;SDS011;23926;53.222;6.354;2023-07-08T08:26:01;3.25;;;2.97;;
38113;SDS011;23926;53.222;6.354;2023-07-08T08:28:27;3.15;;;2.85;;
38113;SDS011;23926;53.222;6.354;2023-07-08T08:30:52;3.22;;;2.90;;
38113;SDS011;23926;53.222;6.354;2023-07-08T08:33:18;4.60;;;2.78;;
38113;SDS011;23926;53.222;6.354;2023-07-08T08:35:44;3.50;;;3.20;;
38113;SDS011;23926;53.222;6.354;2023-07-08T08:38:10;4.10;;;3.50;;
38113;SDS011;23926;53.222;6.354;2023-07-08T08:40:35;3.63;;;3.00;;
38113;SDS011;23926;53.222;6.354;2023-07-08T08:43:05;3.72;;;3.30;;
38113;SDS011;23926;53.222;6.354;2023-07-08T08:45:36;4.28;;;3.22;;
38113;SDS011;23926;53.222;6.354;2023-07-08T08:53:14;5.68;;;2.90;;
38113;SDS011;23926;53.222;6.354;2023-07-08T08:55:42;4.20;;;3.08;;
38113;SDS011;23926;53.222;6.354;2023-07-08T09:01:18;5.60;;;3.33;;
38113;SDS011;23926;53.222;6.354;2023-07-08T09:03:46;6.75;;;3.40;;
38113;SDS011;23926;53.222;6.354;2023-07-08T09:06:20;3.83;;;3.17;;
38113;SDS011;23926;53.222;6.354;2023-07-08T09:08:49;5.22;;;2.85;;
38113;SDS011;23926;53.222;6.354;2023-07-08T09:13:56;3.90;;;3.00;;
38113;SDS011;23926;53.222;6.354;2023-07-08T09:19:01;3.90;;;3.30;;
38113;SDS011;23926;53.222;6.354;2023-07-08T09:24:20;3.38;;;3.08;;
38113;SDS011;23926;53.222;6.354;2023-07-08T09:26:56;27.00;;;4.30;;
38113;SDS011;23926;53.222;6.354;2023-07-08T09:29:26;3.45;;;2.80;;
38113;SDS011;23926;53.222;6.354;2023-07-08T09:31:51;3.00;;;2.80;;
38113;SDS011;23926;53.222;6.354;2023-07-08T09:34:20;4.60;;;3.40;;
38113;SDS011;23926;53.222;6.354;2023-07-08T09:36:48;4.38;;;3.33;;
38113;SDS011;23926;53.222;6.354;2023-07-08T09:39:15;10.00;;;4.00;;
38113;SDS011;23926;53.222;6.354;2023-07-08T09:41:43;6.97;;;3.15;;
38113;SDS011;23926;53.222;6.354;2023-07-08T09:44:13;10.17;;;3.03;;
38113;SDS011;23926;53.222;6.354;2023-07-08T09:46:39;4.07;;;2.50;;
38113;SDS011;23926;53.222;6.354;2023-07-08T09:49:09;8.63;;;3.78;;
38113;SDS011;23926;53.222;6.354;2023-07-08T09:51:54;11.93;;;3.30;;
38113;SDS011;23926;53.222;6.354;2023-07-08T09:54:20;4.80;;;3.17;;
38113;SDS011;23926;53.222;6.354;2023-07-08T09:56:50;8.13;;;3.45;;
38113;SDS011;23926;53.222;6.354;2023-07-08T09:59:33;6.50;;;3.63;;
38113;SDS011;23926;53.222;6.354;2023-07-08T10:02:17;7.38;;;3.30;;
38113;SDS011;23926;53.222;6.354;2023-07-08T10:04:57;8.00;;;3.30;;
38113;SDS011;23926;53.222;6.354;2023-07-08T10:07:32;5.18;;;2.92;;
38113;SDS011;23926;53.222;6.354;2023-07-08T10:09:59;2.65;;;2.45;;
38113;SDS011;23926;53.222;6.354;2023-07-08T10:12:31;7.72;;;2.80;;
38113;SDS011;23926;53.222;6.354;2023-07-08T10:15:01;3.47;;;2.63;;
38113;SDS011;23926;53.222;6.354;2023-07-08T10:17:38;3.07;;;2.77;;
38113;SDS011;23926;53.222;6.354;2023-07-08T10:20:10;5.70;;;3.17;;
38113;SDS011;23926;53.222;6.354;2023-07-08T10:22:50;6.40;;;2.45;;
38113;SDS011;23926;53.222;6.354;2023-07-08T10:25:28;3.58;;;3.28;;
38113;SDS011;23926;53.222;6.354;2023-07-08T10:28:34;3.00;;;2.80;;
38113;SDS011;23926;53.222;6.354;2023-07-08T10:31:02;4.75;;;3.30;;
38113;SDS011;23926;53.222;6.354;2023-07-08T10:36:40;3.80;;;3.28;;
38113;SDS011;23926;53.222;6.354;2023-07-08T10:44:46;3.47;;;3.15;;
38113;SDS011;23926;53.222;6.354;2023-07-08T10:55:49;3.13;;;2.83;;
38113;SDS011;23926;53.222;6.354;2023-07-08T10:58:38;3.30;;;2.70;;
38113;SDS011;23926;53.222;6.354;2023-07-08T11:06:45;3.25;;;2.95;;
38113;SDS011;23926;53.222;6.354;2023-07-08T11:09:19;4.25;;;3.30;;
38113;SDS011;23926;53.222;6.354;2023-07-08T11:19:45;6.47;;;2.92;;
38113;SDS011;23926;53.222;6.354;2023-07-08T11:22:18;3.53;;;2.75;;
38113;SDS011;23926;53.222;6.354;2023-07-08T11:24:47;3.45;;;3.15;;
38113;SDS011;23926;53.222;6.354;2023-07-08T11:32:29;3.23;;;2.90;;
38113;SDS011;23926;53.222;6.354;2023-07-08T11:34:56;4.18;;;3.10;;
38113;SDS011;23926;53.222;6.354;2023-07-08T11:37:24;2.95;;;2.75;;
38113;SDS011;23926;53.222;6.354;2023-07-08T11:39:55;5.70;;;2.40;;
38113;SDS011;23926;53.222;6.354;2023-07-08T11:42:37;5.10;;;2.80;;
38113;SDS011;23926;53.222;6.354;2023-07-08T11:45:51;4.07;;;2.90;;
38113;SDS011;23926;53.222;6.354;2023-07-08T11:50:44;5.80;;;3.10;;
38113;SDS011;23926;53.222;6.354;2023-07-08T11:55:56;7.55;;;3.40;;
38113;SDS011;23926;53.222;6.354;2023-07-08T11:58:24;3.58;;;3.28;;
38113;SDS011;23926;53.222;6.354;2023-07-08T12:09:13;4.03;;;3.10;;
38113;SDS011;23926;53.222;6.354;2023-07-08T12:11:52;4.07;;;3.42;;
38113;SDS011;23926;53.222;6.354;2023-07-08T12:14:21;5.32;;;3.35;;
38113;SDS011;23926;53.222;6.354;2023-07-08T12:16:48;4.65;;;3.42;;
38113;SDS011;23926;53.222;6.354;2023-07-08T12:19:18;4.53;;;3.47;;
38113;SDS011;23926;53.222;6.354;2023-07-08T12:24:13;3.70;;;3.40;;
38113;SDS011;23926;53.222;6.354;2023-07-08T12:26:39;3.10;;;2.80;;
38113;SDS011;23926;53.222;6.354;2023-07-08T12:29:05;4.15;;;3.25;;
38113;SDS011;23926;53.222;6.354;2023-07-08T12:31:31;3.70;;;3.13;;
38113;SDS011;23926;53.222;6.354;2023-07-08T12:33:57;3.80;;;2.65;;
38113;SDS011;23926;53.222;6.354;2023-07-08T12:36:28;3.67;;;2.97;;
38113;SDS011;23926;53.222;6.354;2023-07-08T12:38:55;4.75;;;3.65;;
38113;SDS011;23926;53.222;6.354;2023-07-08T12:41:30;6.45;;;2.78;;
38113;SDS011;23926;53.222;6.354;2023-07-08T12:43:57;4.35;;;3.10;;
38113;SDS011;23926;53.222;6.354;2023-07-08T12:46:24;3.77;;;3.33;;
38113;SDS011;23926;53.222;6.354;2023-07-08T12:48:51;3.15;;;2.88;;
38113;SDS011;23926;53.222;6.354;2023-07-08T12:51:17;3.17;;;2.92;;
38113;SDS011;23926;53.222;6.354;2023-07-08T12:53:48;3.92;;;2.70;;
38113;SDS011;23926;53.222;6.354;2023-07-08T12:56:14;3.95;;;2.95;;
38113;SDS011;23926;53.222;6.354;2023-07-08T12:58:42;4.85;;;3.47;;
38113;SDS011;23926;53.222;6.354;2023-07-08T13:01:15;3.95;;;3.50;;
38113;SDS011;23926;53.222;6.354;2023-07-08T13:03:44;3.35;;;3.05;;
38113;SDS011;23926;53.222;6.354;2023-07-08T13:06:12;4.78;;;3.22;;
38113;SDS011;23926;53.222;6.354;2023-07-08T13:08:41;3.73;;;3.43;;
38113;SDS011;23926;53.222;6.354;2023-07-08T13:11:07;4.93;;;3.30;;
38113;SDS011;23926;53.222;6.354;2023-07-08T13:13:34;7.78;;;3.53;;
38113;SDS011;23926;53.222;6.354;2023-07-08T13:16:02;6.18;;;3.38;;
38113;SDS011;23926;53.222;6.354;2023-07-08T13:21:01;3.78;;;3.38;;
38113;SDS011;23926;53.222;6.354;2023-07-08T13:23:28;5.95;;;3.38;;
38113;SDS011;23926;53.222;6.354;2023-07-08T13:25:54;4.72;;;3.45;;
38113;SDS011;23926;53.222;6.354;2023-07-08T13:28:27;3.25;;;2.85;;
38113;SDS011;23926;53.222;6.354;2023-07-08T13:30:55;4.57;;;3.53;;
38113;SDS011;23926;53.222;6.354;2023-07-08T13:33:24;3.65;;;3.08;;
38113;SDS011;23926;53.222;6.354;2023-07-08T13:35:53;4.45;;;3.17;;
38113;SDS011;23926;53.222;6.354;2023-07-08T13:38:22;5.13;;;3.45;;
38113;SDS011;23926;53.222;6.354;2023-07-08T13:40:55;3.88;;;3.33;;
38113;SDS011;23926;53.222;6.354;2023-07-08T13:43:26;5.55;;;3.50;;
38113;SDS011;23926;53.222;6.354;2023-07-08T13:45:58;4.20;;;3.25;;
38113;SDS011;23926;53.222;6.354;2023-07-08T13:48:27;3.95;;;3.58;;
38113;SDS011;23926;53.222;6.354;2023-07-08T13:51:02;4.28;;;3.47;;
38113;SDS011;23926;53.222;6.354;2023-07-08T13:56:03;6.38;;;3.60;;
38113;SDS011;23926;53.222;6.354;2023-07-08T13:58:41;4.10;;;3.60;;
38113;SDS011;23926;53.222;6.354;2023-07-08T14:01:10;3.47;;;3.17;;
38113;SDS011;23926;53.222;6.354;2023-07-08T14:03:41;8.70;;;3.63;;
38113;SDS011;23926;53.222;6.354;2023-07-08T14:06:12;6.70;;;3.40;;
38113;SDS011;23926;53.222;6.354;2023-07-08T14:08:40;3.60;;;3.30;;
38113;SDS011;23926;53.222;6.354;2023-07-08T14:11:05;3.70;;;3.40;;
38113;SDS011;23926;53.222;6.354;2023-07-08T14:13:31;3.58;;;3.00;;
38113;SDS011;23926;53.222;6.354;2023-07-08T14:15:56;7.93;;;3.42;;
38113;SDS011;23926;53.222;6.354;2023-07-08T14:18:22;5.18;;;3.95;;
38113;SDS011;23926;53.222;6.354;2023-07-08T14:20:47;8.45;;;4.15;;
38113;SDS011;23926;53.222;6.354;2023-07-08T14:23:13;4.25;;;3.85;;
38113;SDS011;23926;53.222;6.354;2023-07-08T14:25:38;6.82;;;4.43;;
38113;SDS011;23926;53.222;6.354;2023-07-08T14:28:04;4.97;;;4.25;;
38113;SDS011;23926;53.222;6.354;2023-07-08T14:30:31;5.03;;;4.53;;
38113;SDS011;23926;53.222;6.354;2023-07-08T14:32:57;4.53;;;4.13;;
38113;SDS011;23926;53.222;6.354;2023-07-08T14:35:28;6.00;;;4.88;;
38113;SDS011;23926;53.222;6.354;2023-07-08T14:37:54;9.02;;;5.50;;
38113;SDS011;23926;53.222;6.354;2023-07-08T14:40:39;8.05;;;4.97;;
38113;SDS011;23926;53.222;6.354;2023-07-08T14:43:21;5.18;;;4.57;;
38113;SDS011;23926;53.222;6.354;2023-07-08T14:45:53;6.95;;;5.78;;
38113;SDS011;23926;53.222;6.354;2023-07-08T14:48:20;8.10;;;6.38;;
38113;SDS011;23926;53.222;6.354;2023-07-08T14:50:46;8.90;;;5.35;;
38113;SDS011;23926;53.222;6.354;2023-07-08T14:53:15;7.78;;;5.90;;
38113;SDS011;23926;53.222;6.354;2023-07-08T14:55:44;5.22;;;4.72;;
38113;SDS011;23926;53.222;6.354;2023-07-08T14:58:32;6.72;;;4.95;;
38113;SDS011;23926;53.222;6.354;2023-07-08T15:00:58;5.32;;;4.68;;
38113;SDS011;23926;53.222;6.354;2023-07-08T15:03:27;5.47;;;4.82;;
38113;SDS011;23926;53.222;6.354;2023-07-08T15:05:53;7.03;;;4.90;;
38113;SDS011;23926;53.222;6.354;2023-07-08T15:08:19;7.50;;;4.93;;
38113;SDS011;23926;53.222;6.354;2023-07-08T15:10:46;5.55;;;4.25;;
38113;SDS011;23926;53.222;6.354;2023-07-08T15:13:14;4.57;;;3.95;;
38113;SDS011;23926;53.222;6.354;2023-07-08T15:15:40;7.78;;;5.18;;
38113;SDS011;23926;53.222;6.354;2023-07-08T15:18:10;5.05;;;4.47;;
38113;SDS011;23926;53.222;6.354;2023-07-08T15:20:37;5.97;;;4.27;;
38113;SDS011;23926;53.222;6.354;2023-07-08T15:23:03;5.28;;;4.38;;
38113;SDS011;23926;53.222;6.354;2023-07-08T15:25:28;5.43;;;3.85;;
38113;SDS011;23926;53.222;6.354;2023-07-08T15:27:55;6.72;;;4.70;;
38113;SDS011;23926;53.222;6.354;2023-07-08T15:30:23;5.63;;;4.43;;
38113;SDS011;23926;53.222;6.354;2023-07-08T15:32:49;5.70;;;4.13;;
38113;SDS011;23926;53.222;6.354;2023-07-08T15:35:21;5.70;;;4.22;;
38113;SDS011;23926;53.222;6.354;2023-07-08T15:37:50;6.40;;;3.95;;
38113;SDS011;23926;53.222;6.354;2023-07-08T15:40:18;4.53;;;4.10;;
38113;SDS011;23926;53.222;6.354;2023-07-08T15:42:45;4.18;;;3.78;;
38113;SDS011;23926;53.222;6.354;2023-07-08T15:45:18;5.80;;;4.28;;
38113;SDS011;23926;53.222;6.354;2023-07-08T15:47:45;6.85;;;4.05;;
38113;SDS011;23926;53.222;6.354;2023-07-08T15:50:15;4.88;;;4.47;;
38113;SDS011;23926;53.222;6.354;2023-07-08T15:52:42;5.40;;;4.32;;
38113;SDS011;23926;53.222;6.354;2023-07-08T15:55:08;5.93;;;3.80;;
38113;SDS011;23926;53.222;6.354;2023-07-08T15:57:37;4.38;;;3.97;;
38113;SDS011;23926;53.222;6.354;2023-07-08T16:00:11;9.40;;;4.30;;
38113;SDS011;23926;53.222;6.354;2023-07-08T16:02:45;4.78;;;3.55;;
38113;SDS011;23926;53.222;6.354;2023-07-08T16:05:14;5.80;;;3.80;;
38113;SDS011;23926;53.222;6.354;2023-07-08T16:07:40;4.55;;;4.13;;
38113;SDS011;23926;53.222;6.354;2023-07-08T16:10:05;5.95;;;3.95;;
38113;SDS011;23926;53.222;6.354;2023-07-08T16:12:31;5.07;;;4.05;;
38113;SDS011;23926;53.222;6.354;2023-07-08T16:14:57;4.17;;;3.70;;